sensor_id;sensor_type;location;lat;lon;timestamp;temperature;humidity
69823;SHT31;57119;52.516;13.508;2022-07-12T00:00:42;12.60;89.42
69823;SHT31;57119;52.516;13.508;2022-07-12T00:03:08;12.60;89.33
69823;SHT31;57119;52.516;13.508;2022-07-12T00:05:33;12.55;89.73
69823;SHT31;57119;52.516;13.508;2022-07-12T00:07:58;12.50;90.07
69823;SHT31;57119;52.516;13.508;2022-07-12T00:10:24;12.56;90.06
69823;SHT31;57119;52.516;13.508;2022-07-12T00:12:49;12.55;90.09
69823;SHT31;57119;52.516;13.508;2022-07-12T00:15:14;12.45;90.25
69823;SHT31;57119;52.516;13.508;2022-07-12T00:17:41;12.42;90.60
69823;SHT31;57119;52.516;13.508;2022-07-12T00:20:07;12.45;90.42
69823;SHT31;57119;52.516;13.508;2022-07-12T00:22:33;12.38;90.58
69823;SHT31;57119;52.516;13.508;2022-07-12T00:24:58;12.28;90.74
69823;SHT31;57119;52.516;13.508;2022-07-12T00:27:26;12.16;91.08
69823;SHT31;57119;52.516;13.508;2022-07-12T00:29:55;12.25;91.53
69823;SHT31;57119;52.516;13.508;2022-07-12T00:32:20;12.10;91.42
69823;SHT31;57119;52.516;13.508;2022-07-12T00:34:45;12.13;92.05
69823;SHT31;57119;52.516;13.508;2022-07-12T00:37:11;12.10;92.19
69823;SHT31;57119;52.516;13.508;2022-07-12T00:39:36;12.08;91.63
69823;SHT31;57119;52.516;13.508;2022-07-12T00:42:02;12.16;91.90
69823;SHT31;57119;52.516;13.508;2022-07-12T00:44:27;12.16;91.57
69823;SHT31;57119;52.516;13.508;2022-07-12T00:46:55;12.14;91.66
69823;SHT31;57119;52.516;13.508;2022-07-12T00:49:23;12.07;91.79
69823;SHT31;57119;52.516;13.508;2022-07-12T00:51:48;12.10;91.88
69823;SHT31;57119;52.516;13.508;2022-07-12T00:54:14;12.02;92.12
69823;SHT31;57119;52.516;13.508;2022-07-12T00:56:40;12.01;92.13
69823;SHT31;57119;52.516;13.508;2022-07-12T00:59:05;11.97;91.93
69823;SHT31;57119;52.516;13.508;2022-07-12T01:01:31;12.02;92.29
69823;SHT31;57119;52.516;13.508;2022-07-12T01:03:56;11.98;92.28
69823;SHT31;57119;52.516;13.508;2022-07-12T01:06:22;11.97;92.16
69823;SHT31;57119;52.516;13.508;2022-07-12T01:08:48;11.94;92.41
69823;SHT31;57119;52.516;13.508;2022-07-12T01:11:15;11.91;92.40
69823;SHT31;57119;52.516;13.508;2022-07-12T01:13:41;11.87;92.73
69823;SHT31;57119;52.516;13.508;2022-07-12T01:16:07;11.93;92.49
69823;SHT31;57119;52.516;13.508;2022-07-12T01:18:33;11.90;92.66
69823;SHT31;57119;52.516;13.508;2022-07-12T01:21:03;11.91;92.76
69823;SHT31;57119;52.516;13.508;2022-07-12T01:23:29;11.84;92.68
69823;SHT31;57119;52.516;13.508;2022-07-12T01:25:55;11.86;92.75
69823;SHT31;57119;52.516;13.508;2022-07-12T01:28:20;11.80;92.80
69823;SHT31;57119;52.516;13.508;2022-07-12T01:30:47;11.77;92.93
69823;SHT31;57119;52.516;13.508;2022-07-12T01:33:12;11.79;92.96
69823;SHT31;57119;52.516;13.508;2022-07-12T01:35:39;11.74;93.10
69823;SHT31;57119;52.516;13.508;2022-07-12T01:38:04;11.71;93.19
69823;SHT31;57119;52.516;13.508;2022-07-12T01:40:30;11.71;93.15
69823;SHT31;57119;52.516;13.508;2022-07-12T01:42:56;11.65;93.20
69823;SHT31;57119;52.516;13.508;2022-07-12T01:45:22;11.62;93.26
69823;SHT31;57119;52.516;13.508;2022-07-12T01:47:47;11.60;93.32
69823;SHT31;57119;52.516;13.508;2022-07-12T01:50:14;11.59;93.47
69823;SHT31;57119;52.516;13.508;2022-07-12T01:52:40;11.58;93.33
69823;SHT31;57119;52.516;13.508;2022-07-12T01:55:07;11.58;93.15
69823;SHT31;57119;52.516;13.508;2022-07-12T01:57:33;11.50;93.36
69823;SHT31;57119;52.516;13.508;2022-07-12T02:00:06;11.50;93.36
69823;SHT31;57119;52.516;13.508;2022-07-12T02:02:32;11.49;93.48
69823;SHT31;57119;52.516;13.508;2022-07-12T02:05:01;11.50;93.40
69823;SHT31;57119;52.516;13.508;2022-07-12T02:07:27;11.43;93.45
69823;SHT31;57119;52.516;13.508;2022-07-12T02:09:53;11.40;93.69
69823;SHT31;57119;52.516;13.508;2022-07-12T02:12:19;11.38;93.86
69823;SHT31;57119;52.516;13.508;2022-07-12T02:14:44;11.42;93.84
69823;SHT31;57119;52.516;13.508;2022-07-12T02:17:10;11.36;93.92
69823;SHT31;57119;52.516;13.508;2022-07-12T02:19:35;11.31;93.96
69823;SHT31;57119;52.516;13.508;2022-07-12T02:22:01;11.32;94.18
69823;SHT31;57119;52.516;13.508;2022-07-12T02:24:26;11.33;94.07
69823;SHT31;57119;52.516;13.508;2022-07-12T02:26:51;11.28;94.11
69823;SHT31;57119;52.516;13.508;2022-07-12T02:29:17;11.21;94.39
69823;SHT31;57119;52.516;13.508;2022-07-12T02:31:42;11.18;94.42
69823;SHT31;57119;52.516;13.508;2022-07-12T02:34:07;11.16;94.39
69823;SHT31;57119;52.516;13.508;2022-07-12T02:36:33;11.07;94.21
69823;SHT31;57119;52.516;13.508;2022-07-12T02:38:59;11.11;94.33
69823;SHT31;57119;52.516;13.508;2022-07-12T02:41:28;11.02;94.44
69823;SHT31;57119;52.516;13.508;2022-07-12T02:43:54;11.02;94.78
69823;SHT31;57119;52.516;13.508;2022-07-12T02:46:20;10.98;94.63
69823;SHT31;57119;52.516;13.508;2022-07-12T02:48:45;11.00;94.71
69823;SHT31;57119;52.516;13.508;2022-07-12T02:51:11;10.97;94.57
69823;SHT31;57119;52.516;13.508;2022-07-12T02:53:37;10.94;94.59
69823;SHT31;57119;52.516;13.508;2022-07-12T02:56:03;10.98;94.58
69823;SHT31;57119;52.516;13.508;2022-07-12T02:58:29;10.94;94.50
69823;SHT31;57119;52.516;13.508;2022-07-12T03:00:55;10.92;94.67
69823;SHT31;57119;52.516;13.508;2022-07-12T03:03:20;10.90;94.70
69823;SHT31;57119;52.516;13.508;2022-07-12T03:05:46;10.91;94.69
69823;SHT31;57119;52.516;13.508;2022-07-12T03:08:12;10.95;94.91
69823;SHT31;57119;52.516;13.508;2022-07-12T03:10:38;10.91;94.72
69823;SHT31;57119;52.516;13.508;2022-07-12T03:13:04;10.98;94.73
69823;SHT31;57119;52.516;13.508;2022-07-12T03:15:30;10.92;94.72
69823;SHT31;57119;52.516;13.508;2022-07-12T03:17:59;10.94;94.89
69823;SHT31;57119;52.516;13.508;2022-07-12T03:20:39;10.92;94.82
69823;SHT31;57119;52.516;13.508;2022-07-12T03:23:05;10.88;94.87
69823;SHT31;57119;52.516;13.508;2022-07-12T03:25:30;10.92;94.99
69823;SHT31;57119;52.516;13.508;2022-07-12T03:27:56;10.90;95.11
69823;SHT31;57119;52.516;13.508;2022-07-12T03:30:21;10.91;95.17
69823;SHT31;57119;52.516;13.508;2022-07-12T03:32:46;10.92;95.04
69823;SHT31;57119;52.516;13.508;2022-07-12T03:35:11;11.00;94.88
69823;SHT31;57119;52.516;13.508;2022-07-12T03:37:44;10.97;94.70
69823;SHT31;57119;52.516;13.508;2022-07-12T03:40:11;11.00;94.39
69823;SHT31;57119;52.516;13.508;2022-07-12T03:42:37;11.07;94.74
69823;SHT31;57119;52.516;13.508;2022-07-12T03:45:03;11.21;94.88
69823;SHT31;57119;52.516;13.508;2022-07-12T03:47:29;11.29;94.62
69823;SHT31;57119;52.516;13.508;2022-07-12T03:50:03;11.32;94.28
69823;SHT31;57119;52.516;13.508;2022-07-12T03:52:30;11.40;94.30
69823;SHT31;57119;52.516;13.508;2022-07-12T03:54:57;11.40;94.09
69823;SHT31;57119;52.516;13.508;2022-07-12T03:57:22;11.52;94.05
69823;SHT31;57119;52.516;13.508;2022-07-12T03:59:48;11.59;94.02
69823;SHT31;57119;52.516;13.508;2022-07-12T04:02:16;11.63;93.12
69823;SHT31;57119;52.516;13.508;2022-07-12T04:04:42;11.71;93.05
69823;SHT31;57119;52.516;13.508;2022-07-12T04:07:07;11.97;90.85
69823;SHT31;57119;52.516;13.508;2022-07-12T04:09:33;12.16;89.80
69823;SHT31;57119;52.516;13.508;2022-07-12T04:11:58;12.48;87.78
69823;SHT31;57119;52.516;13.508;2022-07-12T04:14:24;12.72;86.15
69823;SHT31;57119;52.516;13.508;2022-07-12T04:16:49;12.79;86.81
69823;SHT31;57119;52.516;13.508;2022-07-12T04:19:14;13.00;85.79
69823;SHT31;57119;52.516;13.508;2022-07-12T04:21:40;13.18;84.23
69823;SHT31;57119;52.516;13.508;2022-07-12T04:24:08;13.54;81.74
69823;SHT31;57119;52.516;13.508;2022-07-12T04:26:34;13.66;81.04
69823;SHT31;57119;52.516;13.508;2022-07-12T04:28:59;13.71;81.67
69823;SHT31;57119;52.516;13.508;2022-07-12T04:31:28;13.82;80.73
69823;SHT31;57119;52.516;13.508;2022-07-12T04:33:53;13.87;80.54
69823;SHT31;57119;52.516;13.508;2022-07-12T04:36:21;13.98;79.61
69823;SHT31;57119;52.516;13.508;2022-07-12T04:38:49;14.05;79.50
69823;SHT31;57119;52.516;13.508;2022-07-12T04:41:15;14.17;78.48
69823;SHT31;57119;52.516;13.508;2022-07-12T04:43:40;14.19;78.30
69823;SHT31;57119;52.516;13.508;2022-07-12T04:46:09;14.29;77.00
69823;SHT31;57119;52.516;13.508;2022-07-12T04:48:35;14.34;77.30
69823;SHT31;57119;52.516;13.508;2022-07-12T04:51:01;14.41;77.45
69823;SHT31;57119;52.516;13.508;2022-07-12T04:53:27;14.47;76.89
69823;SHT31;57119;52.516;13.508;2022-07-12T04:55:56;14.58;76.46
69823;SHT31;57119;52.516;13.508;2022-07-12T04:58:22;14.69;75.57
69823;SHT31;57119;52.516;13.508;2022-07-12T05:00:48;14.84;75.14
69823;SHT31;57119;52.516;13.508;2022-07-12T05:03:13;14.99;74.60
69823;SHT31;57119;52.516;13.508;2022-07-12T05:05:39;15.15;74.90
69823;SHT31;57119;52.516;13.508;2022-07-12T05:08:04;15.16;73.93
69823;SHT31;57119;52.516;13.508;2022-07-12T05:10:30;15.25;73.46
69823;SHT31;57119;52.516;13.508;2022-07-12T05:12:56;15.37;73.50
69823;SHT31;57119;52.516;13.508;2022-07-12T05:15:22;15.54;72.72
69823;SHT31;57119;52.516;13.508;2022-07-12T05:17:48;15.53;72.98
69823;SHT31;57119;52.516;13.508;2022-07-12T05:20:13;15.74;70.90
69823;SHT31;57119;52.516;13.508;2022-07-12T05:22:39;15.83;71.03
69823;SHT31;57119;52.516;13.508;2022-07-12T05:25:06;15.92;70.72
69823;SHT31;57119;52.516;13.508;2022-07-12T05:27:32;16.09;69.19
69823;SHT31;57119;52.516;13.508;2022-07-12T05:29:57;16.25;68.00
69823;SHT31;57119;52.516;13.508;2022-07-12T05:32:23;16.42;67.79
69823;SHT31;57119;52.516;13.508;2022-07-12T05:34:49;16.55;67.18
69823;SHT31;57119;52.516;13.508;2022-07-12T05:37:15;16.61;67.46
69823;SHT31;57119;52.516;13.508;2022-07-12T05:39:41;16.79;66.82
69823;SHT31;57119;52.516;13.508;2022-07-12T05:42:06;16.92;66.21
69823;SHT31;57119;52.516;13.508;2022-07-12T05:44:32;17.01;65.57
69823;SHT31;57119;52.516;13.508;2022-07-12T05:47:10;17.17;64.66
69823;SHT31;57119;52.516;13.508;2022-07-12T05:49:41;17.32;64.04
69823;SHT31;57119;52.516;13.508;2022-07-12T05:52:07;17.43;64.03
69823;SHT31;57119;52.516;13.508;2022-07-12T05:54:51;17.52;62.75
69823;SHT31;57119;52.516;13.508;2022-07-12T05:57:16;17.58;64.19
69823;SHT31;57119;52.516;13.508;2022-07-12T05:59:42;17.70;65.01
69823;SHT31;57119;52.516;13.508;2022-07-12T06:02:08;17.79;63.78
69823;SHT31;57119;52.516;13.508;2022-07-12T06:04:33;17.93;65.69
69823;SHT31;57119;52.516;13.508;2022-07-12T06:06:59;18.04;62.58
69823;SHT31;57119;52.516;13.508;2022-07-12T06:09:24;18.18;62.35
69823;SHT31;57119;52.516;13.508;2022-07-12T06:11:49;18.21;61.88
69823;SHT31;57119;52.516;13.508;2022-07-12T06:14:18;18.27;61.92
69823;SHT31;57119;52.516;13.508;2022-07-12T06:16:44;18.40;63.29
69823;SHT31;57119;52.516;13.508;2022-07-12T06:19:09;18.51;61.71
69823;SHT31;57119;52.516;13.508;2022-07-12T06:21:35;18.68;61.41
69823;SHT31;57119;52.516;13.508;2022-07-12T06:24:00;18.86;62.03
69823;SHT31;57119;52.516;13.508;2022-07-12T06:26:25;19.02;62.16
69823;SHT31;57119;52.516;13.508;2022-07-12T06:28:51;19.26;61.73
69823;SHT31;57119;52.516;13.508;2022-07-12T06:31:16;19.33;60.61
69823;SHT31;57119;52.516;13.508;2022-07-12T06:33:42;19.46;60.64
69823;SHT31;57119;52.516;13.508;2022-07-12T06:36:07;19.51;60.08
69823;SHT31;57119;52.516;13.508;2022-07-12T06:38:32;19.58;59.62
69823;SHT31;57119;52.516;13.508;2022-07-12T06:40:58;19.82;59.23
69823;SHT31;57119;52.516;13.508;2022-07-12T06:43:23;19.95;59.30
69823;SHT31;57119;52.516;13.508;2022-07-12T06:45:48;19.95;59.05
69823;SHT31;57119;52.516;13.508;2022-07-12T06:48:14;20.05;57.93
69823;SHT31;57119;52.516;13.508;2022-07-12T06:50:39;20.05;58.00
69823;SHT31;57119;52.516;13.508;2022-07-12T06:53:05;20.29;58.69
69823;SHT31;57119;52.516;13.508;2022-07-12T06:55:30;20.33;57.08
69823;SHT31;57119;52.516;13.508;2022-07-12T06:57:56;20.47;57.74
69823;SHT31;57119;52.516;13.508;2022-07-12T07:00:21;20.67;57.33
69823;SHT31;57119;52.516;13.508;2022-07-12T07:02:47;20.90;58.07
69823;SHT31;57119;52.516;13.508;2022-07-12T07:05:12;21.15;55.34
69823;SHT31;57119;52.516;13.508;2022-07-12T07:07:37;21.12;56.17
69823;SHT31;57119;52.516;13.508;2022-07-12T07:10:03;21.25;55.25
69823;SHT31;57119;52.516;13.508;2022-07-12T07:12:28;21.45;56.27
69823;SHT31;57119;52.516;13.508;2022-07-12T07:14:54;21.50;54.64
69823;SHT31;57119;52.516;13.508;2022-07-12T07:17:19;21.77;55.12
69823;SHT31;57119;52.516;13.508;2022-07-12T07:19:45;21.89;55.16
69823;SHT31;57119;52.516;13.508;2022-07-12T07:22:11;22.05;54.66
69823;SHT31;57119;52.516;13.508;2022-07-12T07:24:37;21.87;54.76
69823;SHT31;57119;52.516;13.508;2022-07-12T07:27:02;22.10;54.38
69823;SHT31;57119;52.516;13.508;2022-07-12T07:29:28;22.34;54.43
69823;SHT31;57119;52.516;13.508;2022-07-12T07:32:12;22.41;52.94
69823;SHT31;57119;52.516;13.508;2022-07-12T07:34:37;22.01;52.55
69823;SHT31;57119;52.516;13.508;2022-07-12T07:37:03;22.32;53.83
69823;SHT31;57119;52.516;13.508;2022-07-12T07:39:28;22.67;53.61
69823;SHT31;57119;52.516;13.508;2022-07-12T07:41:54;22.82;52.78
69823;SHT31;57119;52.516;13.508;2022-07-12T07:44:19;22.82;50.98
69823;SHT31;57119;52.516;13.508;2022-07-12T07:46:44;23.04;50.70
69823;SHT31;57119;52.516;13.508;2022-07-12T07:49:10;23.27;51.10
69823;SHT31;57119;52.516;13.508;2022-07-12T07:51:35;23.20;49.96
69823;SHT31;57119;52.516;13.508;2022-07-12T07:54:00;23.10;50.26
69823;SHT31;57119;52.516;13.508;2022-07-12T07:56:28;23.62;50.21
69823;SHT31;57119;52.516;13.508;2022-07-12T07:58:54;23.99;49.35
69823;SHT31;57119;52.516;13.508;2022-07-12T08:01:19;24.20;47.30
69823;SHT31;57119;52.516;13.508;2022-07-12T08:03:45;24.57;48.18
69823;SHT31;57119;52.516;13.508;2022-07-12T08:06:10;25.11;48.79
69823;SHT31;57119;52.516;13.508;2022-07-12T08:08:35;25.42;46.06
69823;SHT31;57119;52.516;13.508;2022-07-12T08:11:01;25.78;45.85
69823;SHT31;57119;52.516;13.508;2022-07-12T08:13:26;24.88;46.41
69823;SHT31;57119;52.516;13.508;2022-07-12T08:15:51;25.36;47.14
69823;SHT31;57119;52.516;13.508;2022-07-12T08:18:17;25.77;47.62
69823;SHT31;57119;52.516;13.508;2022-07-12T08:20:42;26.20;45.66
69823;SHT31;57119;52.516;13.508;2022-07-12T08:23:17;26.39;46.15
69823;SHT31;57119;52.516;13.508;2022-07-12T08:25:48;26.84;44.66
69823;SHT31;57119;52.516;13.508;2022-07-12T08:28:14;26.18;43.07
69823;SHT31;57119;52.516;13.508;2022-07-12T08:30:39;25.63;43.45
69823;SHT31;57119;52.516;13.508;2022-07-12T08:33:04;26.15;46.74
69823;SHT31;57119;52.516;13.508;2022-07-12T08:35:30;26.48;44.90
69823;SHT31;57119;52.516;13.508;2022-07-12T08:37:56;26.94;44.64
69823;SHT31;57119;52.516;13.508;2022-07-12T08:40:21;26.78;42.47
69823;SHT31;57119;52.516;13.508;2022-07-12T08:42:46;27.06;42.54
69823;SHT31;57119;52.516;13.508;2022-07-12T08:45:13;27.28;43.04
69823;SHT31;57119;52.516;13.508;2022-07-12T08:47:38;27.75;41.72
69823;SHT31;57119;52.516;13.508;2022-07-12T08:52:46;27.82;41.23
69823;SHT31;57119;52.516;13.508;2022-07-12T08:55:16;27.86;40.70
69823;SHT31;57119;52.516;13.508;2022-07-12T08:57:43;28.25;42.02
69823;SHT31;57119;52.516;13.508;2022-07-12T09:00:09;28.09;38.63
69823;SHT31;57119;52.516;13.508;2022-07-12T09:02:49;28.47;40.18
69823;SHT31;57119;52.516;13.508;2022-07-12T09:05:20;29.25;40.20
69823;SHT31;57119;52.516;13.508;2022-07-12T09:07:46;29.39;38.49
69823;SHT31;57119;52.516;13.508;2022-07-12T09:10:13;28.60;38.38
69823;SHT31;57119;52.516;13.508;2022-07-12T09:12:39;28.62;38.55
69823;SHT31;57119;52.516;13.508;2022-07-12T09:17:37;28.92;39.36
69823;SHT31;57119;52.516;13.508;2022-07-12T09:20:03;29.56;41.59
69823;SHT31;57119;52.516;13.508;2022-07-12T09:22:29;29.68;39.08
69823;SHT31;57119;52.516;13.508;2022-07-12T09:24:54;29.70;37.67
69823;SHT31;57119;52.516;13.508;2022-07-12T09:27:26;29.37;39.25
69823;SHT31;57119;52.516;13.508;2022-07-12T09:29:51;30.11;38.23
69823;SHT31;57119;52.516;13.508;2022-07-12T09:32:17;29.92;37.64
69823;SHT31;57119;52.516;13.508;2022-07-12T09:35:03;29.36;40.92
69823;SHT31;57119;52.516;13.508;2022-07-12T09:37:47;29.95;37.88
69823;SHT31;57119;52.516;13.508;2022-07-12T09:40:13;29.13;37.54
69823;SHT31;57119;52.516;13.508;2022-07-12T09:42:41;28.00;40.49
69823;SHT31;57119;52.516;13.508;2022-07-12T09:45:08;27.55;42.26
69823;SHT31;57119;52.516;13.508;2022-07-12T09:47:37;28.57;40.01
69823;SHT31;57119;52.516;13.508;2022-07-12T09:50:04;28.61;39.86
69823;SHT31;57119;52.516;13.508;2022-07-12T09:52:32;29.18;39.44
69823;SHT31;57119;52.516;13.508;2022-07-12T09:55:02;29.88;39.00
69823;SHT31;57119;52.516;13.508;2022-07-12T09:57:32;29.10;39.02
69823;SHT31;57119;52.516;13.508;2022-07-12T09:59:59;29.77;42.16
69823;SHT31;57119;52.516;13.508;2022-07-12T10:02:24;30.95;37.85
69823;SHT31;57119;52.516;13.508;2022-07-12T10:04:50;31.72;37.09
69823;SHT31;57119;52.516;13.508;2022-07-12T10:07:19;31.75;35.70
69823;SHT31;57119;52.516;13.508;2022-07-12T10:09:47;30.90;36.48
69823;SHT31;57119;52.516;13.508;2022-07-12T10:12:16;31.12;36.99
69823;SHT31;57119;52.516;13.508;2022-07-12T10:14:42;29.91;39.22
69823;SHT31;57119;52.516;13.508;2022-07-12T10:17:08;29.60;38.29
69823;SHT31;57119;52.516;13.508;2022-07-12T10:19:38;30.05;39.44
69823;SHT31;57119;52.516;13.508;2022-07-12T10:22:06;31.22;36.32
69823;SHT31;57119;52.516;13.508;2022-07-12T10:27:26;32.31;35.46
69823;SHT31;57119;52.516;13.508;2022-07-12T10:29:50;32.74;34.40
69823;SHT31;57119;52.516;13.508;2022-07-12T10:32:23;33.30;33.25
69823;SHT31;57119;52.516;13.508;2022-07-12T10:35:01;33.18;36.79
69823;SHT31;57119;52.516;13.508;2022-07-12T10:37:27;33.43;34.52
69823;SHT31;57119;52.516;13.508;2022-07-12T10:40:19;33.78;31.28
69823;SHT31;57119;52.516;13.508;2022-07-12T10:45:38;31.45;36.00
69823;SHT31;57119;52.516;13.508;2022-07-12T10:48:07;32.41;34.36
69823;SHT31;57119;52.516;13.508;2022-07-12T11:01:02;34.36;33.29
69823;SHT31;57119;52.516;13.508;2022-07-12T11:06:16;31.61;34.09
69823;SHT31;57119;52.516;13.508;2022-07-12T11:08:55;29.57;38.20
69823;SHT31;57119;52.516;13.508;2022-07-12T11:11:22;30.47;36.79
69823;SHT31;57119;52.516;13.508;2022-07-12T11:13:51;32.19;37.29
69823;SHT31;57119;52.516;13.508;2022-07-12T11:16:16;30.55;37.26
69823;SHT31;57119;52.516;13.508;2022-07-12T11:18:43;29.58;38.08
69823;SHT31;57119;52.516;13.508;2022-07-12T11:21:08;29.06;39.79
69823;SHT31;57119;52.516;13.508;2022-07-12T11:23:34;29.40;39.71
69823;SHT31;57119;52.516;13.508;2022-07-12T11:26:04;30.98;37.22
69823;SHT31;57119;52.516;13.508;2022-07-12T11:28:31;32.96;36.28
69823;SHT31;57119;52.516;13.508;2022-07-12T11:31:08;31.92;35.23
69823;SHT31;57119;52.516;13.508;2022-07-12T11:33:36;32.02;35.67
69823;SHT31;57119;52.516;13.508;2022-07-12T11:36:07;29.95;37.60
69823;SHT31;57119;52.516;13.508;2022-07-12T11:38:37;29.54;39.35
69823;SHT31;57119;52.516;13.508;2022-07-12T11:41:05;30.88;40.14
69823;SHT31;57119;52.516;13.508;2022-07-12T11:43:33;32.27;36.46
69823;SHT31;57119;52.516;13.508;2022-07-12T11:45:59;33.27;35.56
69823;SHT31;57119;52.516;13.508;2022-07-12T11:48:26;34.60;34.59
69823;SHT31;57119;52.516;13.508;2022-07-12T11:50:53;34.35;35.77
69823;SHT31;57119;52.516;13.508;2022-07-12T11:53:24;34.73;33.04
69823;SHT31;57119;52.516;13.508;2022-07-12T11:55:54;35.34;33.72
69823;SHT31;57119;52.516;13.508;2022-07-12T11:58:24;35.61;31.05
69823;SHT31;57119;52.516;13.508;2022-07-12T12:00:51;34.26;34.44
69823;SHT31;57119;52.516;13.508;2022-07-12T12:03:18;33.49;34.33
69823;SHT31;57119;52.516;13.508;2022-07-12T12:05:46;31.96;36.21
69823;SHT31;57119;52.516;13.508;2022-07-12T12:08:12;30.62;38.21
69823;SHT31;57119;52.516;13.508;2022-07-12T12:10:48;32.95;36.11
69823;SHT31;57119;52.516;13.508;2022-07-12T12:13:17;34.25;35.36
69823;SHT31;57119;52.516;13.508;2022-07-12T12:15:51;34.53;31.50
69823;SHT31;57119;52.516;13.508;2022-07-12T12:18:16;32.61;34.76
69823;SHT31;57119;52.516;13.508;2022-07-12T12:20:42;31.22;35.73
69823;SHT31;57119;52.516;13.508;2022-07-12T12:23:19;30.97;36.35
69823;SHT31;57119;52.516;13.508;2022-07-12T12:25:44;31.73;36.54
69823;SHT31;57119;52.516;13.508;2022-07-12T12:28:11;30.56;37.72
69823;SHT31;57119;52.516;13.508;2022-07-12T12:30:51;32.64;33.84
69823;SHT31;57119;52.516;13.508;2022-07-12T12:33:42;33.36;35.29
69823;SHT31;57119;52.516;13.508;2022-07-12T12:36:23;32.86;33.79
69823;SHT31;57119;52.516;13.508;2022-07-12T12:38:54;31.30;37.10
69823;SHT31;57119;52.516;13.508;2022-07-12T12:41:20;31.69;36.98
69823;SHT31;57119;52.516;13.508;2022-07-12T12:43:48;30.45;37.21
69823;SHT31;57119;52.516;13.508;2022-07-12T12:46:13;30.93;38.60
69823;SHT31;57119;52.516;13.508;2022-07-12T12:48:46;32.21;36.02
69823;SHT31;57119;52.516;13.508;2022-07-12T12:51:12;31.01;37.13
69823;SHT31;57119;52.516;13.508;2022-07-12T12:53:39;31.82;35.97
69823;SHT31;57119;52.516;13.508;2022-07-12T12:56:06;31.34;36.35
69823;SHT31;57119;52.516;13.508;2022-07-12T12:58:35;32.88;34.95
69823;SHT31;57119;52.516;13.508;2022-07-12T13:01:02;34.04;33.74
69823;SHT31;57119;52.516;13.508;2022-07-12T13:03:27;34.67;34.46
69823;SHT31;57119;52.516;13.508;2022-07-12T13:05:53;35.47;32.16
69823;SHT31;57119;52.516;13.508;2022-07-12T13:08:18;35.49;30.90
69823;SHT31;57119;52.516;13.508;2022-07-12T13:10:45;35.69;32.12
69823;SHT31;57119;52.516;13.508;2022-07-12T13:13:11;36.32;31.20
69823;SHT31;57119;52.516;13.508;2022-07-12T13:15:38;37.08;30.81
69823;SHT31;57119;52.516;13.508;2022-07-12T13:18:04;36.53;32.11
69823;SHT31;57119;52.516;13.508;2022-07-12T13:20:30;36.99;29.81
69823;SHT31;57119;52.516;13.508;2022-07-12T13:22:55;36.91;31.00
69823;SHT31;57119;52.516;13.508;2022-07-12T13:25:21;36.95;30.82
69823;SHT31;57119;52.516;13.508;2022-07-12T13:27:47;36.75;29.69
69823;SHT31;57119;52.516;13.508;2022-07-12T13:30:14;35.97;30.61
69823;SHT31;57119;52.516;13.508;2022-07-12T13:32:41;35.66;30.78
69823;SHT31;57119;52.516;13.508;2022-07-12T13:35:07;35.62;32.35
69823;SHT31;57119;52.516;13.508;2022-07-12T13:37:34;35.79;31.64
69823;SHT31;57119;52.516;13.508;2022-07-12T13:40:00;36.27;31.53
69823;SHT31;57119;52.516;13.508;2022-07-12T13:42:46;34.57;32.21
69823;SHT31;57119;52.516;13.508;2022-07-12T13:45:16;35.15;31.37
69823;SHT31;57119;52.516;13.508;2022-07-12T13:47:43;35.58;31.38
69823;SHT31;57119;52.516;13.508;2022-07-12T13:50:11;33.77;33.04
69823;SHT31;57119;52.516;13.508;2022-07-12T13:52:37;34.14;32.75
69823;SHT31;57119;52.516;13.508;2022-07-12T13:55:04;34.25;33.33
69823;SHT31;57119;52.516;13.508;2022-07-12T13:57:30;32.95;34.26
69823;SHT31;57119;52.516;13.508;2022-07-12T13:59:57;33.93;34.13
69823;SHT31;57119;52.516;13.508;2022-07-12T14:02:23;34.16;32.49
69823;SHT31;57119;52.516;13.508;2022-07-12T14:04:48;34.82;33.59
69823;SHT31;57119;52.516;13.508;2022-07-12T14:07:15;35.61;31.53
69823;SHT31;57119;52.516;13.508;2022-07-12T14:09:41;36.16;31.12
69823;SHT31;57119;52.516;13.508;2022-07-12T14:12:06;36.73;31.05
69823;SHT31;57119;52.516;13.508;2022-07-12T14:14:33;36.70;29.94
69823;SHT31;57119;52.516;13.508;2022-07-12T14:17:19;36.73;29.89
69823;SHT31;57119;52.516;13.508;2022-07-12T14:19:45;36.50;30.05
69823;SHT31;57119;52.516;13.508;2022-07-12T14:22:10;34.65;31.45
69823;SHT31;57119;52.516;13.508;2022-07-12T14:24:35;32.58;34.49
69823;SHT31;57119;52.516;13.508;2022-07-12T14:27:01;31.48;35.81
69823;SHT31;57119;52.516;13.508;2022-07-12T14:29:28;32.50;33.86
69823;SHT31;57119;52.516;13.508;2022-07-12T14:31:54;31.62;34.91
69823;SHT31;57119;52.516;13.508;2022-07-12T14:34:21;32.61;35.43
69823;SHT31;57119;52.516;13.508;2022-07-12T14:36:46;34.05;33.72
69823;SHT31;57119;52.516;13.508;2022-07-12T14:39:12;34.51;32.90
69823;SHT31;57119;52.516;13.508;2022-07-12T14:41:37;35.00;31.98
69823;SHT31;57119;52.516;13.508;2022-07-12T14:44:03;33.30;33.81
69823;SHT31;57119;52.516;13.508;2022-07-12T14:46:32;31.57;35.24
69823;SHT31;57119;52.516;13.508;2022-07-12T14:48:57;30.16;37.88
69823;SHT31;57119;52.516;13.508;2022-07-12T14:51:23;29.26;39.73
69823;SHT31;57119;52.516;13.508;2022-07-12T14:53:48;28.34;40.05
69823;SHT31;57119;52.516;13.508;2022-07-12T14:56:13;28.20;41.85
69823;SHT31;57119;52.516;13.508;2022-07-12T14:58:39;28.00;41.64
69823;SHT31;57119;52.516;13.508;2022-07-12T15:01:04;28.39;40.81
69823;SHT31;57119;52.516;13.508;2022-07-12T15:03:29;30.67;37.67
69823;SHT31;57119;52.516;13.508;2022-07-12T15:05:55;32.03;35.02
69823;SHT31;57119;52.516;13.508;2022-07-12T15:08:20;32.51;36.95
69823;SHT31;57119;52.516;13.508;2022-07-12T15:10:45;33.18;34.54
69823;SHT31;57119;52.516;13.508;2022-07-12T15:13:11;33.11;34.30
69823;SHT31;57119;52.516;13.508;2022-07-12T15:15:36;33.68;32.86
69823;SHT31;57119;52.516;13.508;2022-07-12T15:18:01;33.33;35.77
69823;SHT31;57119;52.516;13.508;2022-07-12T15:20:27;32.89;35.00
69823;SHT31;57119;52.516;13.508;2022-07-12T15:22:52;31.66;37.07
69823;SHT31;57119;52.516;13.508;2022-07-12T15:25:18;33.32;34.16
69823;SHT31;57119;52.516;13.508;2022-07-12T15:27:43;32.65;34.82
69823;SHT31;57119;52.516;13.508;2022-07-12T15:30:10;33.13;35.84
69823;SHT31;57119;52.516;13.508;2022-07-12T15:32:35;33.45;34.82
69823;SHT31;57119;52.516;13.508;2022-07-12T15:35:01;33.91;34.16
69823;SHT31;57119;52.516;13.508;2022-07-12T15:37:26;34.09;33.56